Portada
METAR-TAF:

METAR-TAF

Aeroports :

Antananarivo, Madagascar

latitud: 18-48S, longitud: 047-29E, altitud: 1279 m

Observació

L'informe es va fer fa 34 minuts, a les 10:30 UTC
Vent 10 kt del Est/Sud-Est, variant entre Est i Sud/Sud-Est
Temperatura 28°C
Humitat 19%
Pressió 1022 hPa
Visibilitat 10 km o més
sense núvols per sota de 1500 mi sense presència de cumulonimbus.

METAR: FMMI 251030Z 12010KT 080V160 CAVOK 28/02 Q1022 NOSIG

Hora: 14:04 (11:04 UTC)

Pronòstic

L'informe es va fer fa 6 hores i 4 minuts, a les 05:00 UTC
Pronòstic vàlid del 25 a les 06 UTC al 26 a les 12 UTC
Vent 7 kt del Est/Sud-Est
Visibilitat 10 km o més
Escasses núvols a una alçada de 2000 ft
Probabilitat 30%
l' 26 a les 02 UTC al 26 a les 05 UTC
Visibilitat: 2000 m
boirina

TAF: FMMI 250500Z 2506/2612 12007KT 9999 FEW020 PROB30 2602/2605 2000 BR

Observacions i pronòstics meteorològics de més de 4000 aeroports (METAR i TAF).

Les estacions disponibles són els punts grocs i vermells al mapa.

Posi el ratolí al punt desitjat per veure el nom de l'estació.

Feu clic per veure les observacions i els pronòstics meteorològics.

Per canviar el mapa: feu clic els botons verds amb una creu de color negre per apropar; al botó verd amb un guió per allunyar la imatge; o en les fletxes verdes per a mapes adjacents.


METAR-TAF: